Time;durP1;ratioP1;P1;durP2;ratioP2;P2;SDS_P1;SDS_P2;PMS_P1;PMS_P2;Temp;Humidity;BMP_temperature;BMP_pressure;BME280_temperature;BME280_humidity;BME280_pressure;Samples;Min_cycle;Max_cycle;Signal;HPM_P1;HPM_P2
2023/09/10 00:00:23;;;;;;;14.05;9.32;;;;;;;;;;5068779;28;20021;-63
2023/09/10 00:02:49;;;;;;;12.27;8.88;;;;;;;;;;5058268;28;20021;-62
2023/09/10 00:05:14;;;;;;;13.20;8.93;;;;;;;;;;5055508;28;20025;-63
2023/09/10 00:07:40;;;;;;;15.27;9.52;;;;;;;;;;5055280;28;20021;-62
2023/09/10 00:10:06;;;;;;;13.77;9.23;;;;;;;;;;5055256;28;20024;-62
2023/09/10 00:12:31;;;;;;;14.40;9.40;;;;;;;;;;5055459;28;20021;-62
2023/09/10 00:14:57;;;;;;;13.05;9.23;;;;;;;;;;5055227;28;20370;-62
2023/09/10 00:17:22;;;;;;;15.77;9.25;;;;;;;;;;5055208;28;20036;-62
2023/09/10 00:19:48;;;;;;;17.55;9.13;;;;;;;;;;5055163;28;20021;-64
2023/09/10 00:22:13;;;;;;;14.00;9.10;;;;;;;;;;5054842;28;20473;-62
2023/09/10 00:24:39;;;;;;;14.45;9.50;;;;;;;;;;5055082;28;20052;-63
2023/09/10 00:27:04;;;;;;;14.68;9.50;;;;;;;;;;5055135;28;20527;-63
2023/09/10 00:29:30;;;;;;;17.90;9.48;;;;;;;;;;5054982;28;20017;-63
2023/09/10 00:31:55;;;;;;;13.07;9.30;;;;;;;;;;5054883;28;20401;-62
2023/09/10 00:34:21;;;;;;;14.55;9.13;;;;;;;;;;5054728;28;20023;-62
2023/09/10 00:36:46;;;;;;;14.27;9.43;;;;;;;;;;5054363;28;20043;-63
2023/09/10 00:39:11;;;;;;;12.73;9.13;;;;;;;;;;5053491;28;20084;-62
2023/09/10 00:41:37;;;;;;;14.80;10.10;;;;;;;;;;5054795;28;20115;-63
2023/09/10 00:44:02;;;;;;;12.85;9.55;;;;;;;;;;5054718;28;20021;-64
2023/09/10 00:46:29;;;;;;;14.18;9.32;;;;;;;;;;5054628;28;20097;-63
2023/09/10 00:48:55;;;;;;;16.20;9.57;;;;;;;;;;5054690;28;20033;-63
2023/09/10 00:51:21;;;;;;;15.63;9.07;;;;;;;;;;5054137;28;20084;-65
2023/09/10 00:53:46;;;;;;;15.52;9.52;;;;;;;;;;5054559;28;20029;-63
2023/09/10 00:56:12;;;;;;;16.63;9.65;;;;;;;;;;5054463;28;20029;-67
2023/09/10 00:58:38;;;;;;;13.35;8.73;;;;;;;;;;5054511;28;20154;-65
2023/09/10 01:01:04;;;;;;;22.65;15.10;;;;;;;;;;5054581;28;20119;-67
2023/09/10 01:03:30;;;;;;;13.98;9.23;;;;;;;;;;5054446;28;20099;-64
2023/09/10 01:05:56;;;;;;;13.82;8.75;;;;;;;;;;5054249;28;20024;-64
2023/09/10 01:08:21;;;;;;;17.25;9.20;;;;;;;;;;5054347;28;20028;-64
2023/09/10 01:11:05;;;;;;;13.00;8.90;;;;;;;;;;5054314;28;20394;-67
2023/09/10 01:14:21;;;;;;;13.23;8.88;;;;;;;;;;5053231;28;20158;-68
2023/09/10 01:17:14;;;;;;;17.35;8.93;;;;;;;;;;5051111;28;20402;-67
2023/09/10 01:19:56;;;;;;;16.42;8.35;;;;;;;;;;5011833;28;20495;-68
2023/09/10 01:22:36;;;;;;;11.25;8.90;;;;;;;;;;5012275;28;20037;-66
2023/09/10 01:25:02;;;;;;;15.13;8.88;;;;;;;;;;5012127;28;20058;-64
2023/09/10 01:27:28;;;;;;;15.68;9.00;;;;;;;;;;5012077;28;20116;-68
2023/09/10 01:29:54;;;;;;;12.00;8.63;;;;;;;;;;5012013;28;20152;-68
2023/09/10 01:32:21;;;;;;;12.55;8.38;;;;;;;;;;5011937;28;20030;-69
2023/09/10 01:34:55;;;;;;;14.52;8.80;;;;;;;;;;5011465;28;20084;-67
2023/09/10 01:37:53;;;;;;;14.50;9.07;;;;;;;;;;5011575;28;20044;-67
2023/09/10 01:40:21;;;;;;;12.88;8.18;;;;;;;;;;4934291;29;20556;-63
2023/09/10 01:42:48;;;;;;;14.85;9.00;;;;;;;;;;4934296;29;20059;-63
2023/09/10 01:45:14;;;;;;;16.30;8.70;;;;;;;;;;4918455;29;20048;-63
2023/09/10 01:47:40;;;;;;;10.98;8.35;;;;;;;;;;4933931;29;20113;-66
2023/09/10 01:50:07;;;;;;;13.98;8.73;;;;;;;;;;4933874;29;20110;-63
2023/09/10 01:52:33;;;;;;;14.73;9.15;;;;;;;;;;4934120;29;20047;-63
2023/09/10 01:54:58;;;;;;;16.45;9.43;;;;;;;;;;4934096;29;20425;-65
2023/09/10 01:57:23;;;;;;;17.70;9.48;;;;;;;;;;4981437;28;20152;-64
2023/09/10 01:59:49;;;;;;;13.05;9.13;;;;;;;;;;4991959;28;20138;-64
2023/09/10 02:02:15;;;;;;;14.18;8.82;;;;;;;;;;4991811;28;20105;-67
2023/09/10 02:04:40;;;;;;;14.23;9.57;;;;;;;;;;4991829;28;20053;-67
2023/09/10 02:07:06;;;;;;;14.60;9.88;;;;;;;;;;4991890;28;20490;-66
2023/09/10 02:09:31;;;;;;;16.48;9.93;;;;;;;;;;4991718;28;20120;-65
2023/09/10 02:11:57;;;;;;;14.40;9.68;;;;;;;;;;4991752;28;20269;-65
2023/09/10 02:14:23;;;;;;;13.77;10.02;;;;;;;;;;4991723;28;20058;-66
2023/09/10 02:16:49;;;;;;;18.00;9.98;;;;;;;;;;5014109;28;20033;-64
2023/09/10 02:19:14;;;;;;;16.70;9.63;;;;;;;;;;5053081;28;20063;-63
2023/09/10 02:21:40;;;;;;;16.77;10.73;;;;;;;;;;5052694;28;20025;-64
2023/09/10 02:24:05;;;;;;;13.55;9.73;;;;;;;;;;5052782;28;20109;-65
2023/09/10 02:26:31;;;;;;;17.63;9.90;;;;;;;;;;5052665;28;20049;-66
2023/09/10 02:28:56;;;;;;;13.73;10.23;;;;;;;;;;5052800;28;20522;-65
2023/09/10 02:31:22;;;;;;;16.90;11.23;;;;;;;;;;5052522;28;20033;-64
2023/09/10 02:33:47;;;;;;;16.45;9.88;;;;;;;;;;5052581;28;20455;-66
2023/09/10 02:36:13;;;;;;;15.63;10.88;;;;;;;;;;5052484;28;20029;-63
2023/09/10 02:38:38;;;;;;;22.20;12.18;;;;;;;;;;5052789;28;20029;-65
2023/09/10 02:41:04;;;;;;;17.95;11.90;;;;;;;;;;5052806;28;20016;-66
2023/09/10 02:43:29;;;;;;;15.05;10.55;;;;;;;;;;5052592;28;20426;-64
2023/09/10 02:45:54;;;;;;;19.52;11.40;;;;;;;;;;5052481;28;20581;-64
2023/09/10 02:48:20;;;;;;;22.65;10.07;;;;;;;;;;5052781;28;20021;-63
2023/09/10 02:50:45;;;;;;;16.42;10.25;;;;;;;;;;5052320;28;20045;-63
2023/09/10 02:53:11;;;;;;;14.77;10.77;;;;;;;;;;5052290;28;20028;-65
2023/09/10 02:55:36;;;;;;;16.15;10.50;;;;;;;;;;5052489;28;20060;-63
2023/09/10 02:58:02;;;;;;;17.88;10.20;;;;;;;;;;5052533;28;20025;-66
2023/09/10 03:00:27;;;;;;;15.75;10.82;;;;;;;;;;5052286;28;20421;-67
2023/09/10 03:02:54;;;;;;;17.83;10.40;;;;;;;;;;5052462;28;20028;-64
2023/09/10 03:05:19;;;;;;;15.50;10.98;;;;;;;;;;5052481;28;20051;-65
2023/09/10 03:07:45;;;;;;;17.35;10.80;;;;;;;;;;5052286;28;20028;-66
2023/09/10 03:10:10;;;;;;;17.90;10.98;;;;;;;;;;5052289;28;20099;-64
2023/09/10 03:12:36;;;;;;;16.85;11.30;;;;;;;;;;5052542;28;20378;-65
2023/09/10 03:15:02;;;;;;;16.75;11.50;;;;;;;;;;5052151;28;20021;-69
2023/09/10 03:17:28;;;;;;;15.40;11.85;;;;;;;;;;5052408;28;20044;-67
2023/09/10 03:19:53;;;;;;;18.52;10.60;;;;;;;;;;5052285;28;20025;-67
2023/09/10 03:22:18;;;;;;;14.88;10.65;;;;;;;;;;5052181;28;20025;-67
2023/09/10 03:24:44;;;;;;;15.18;11.73;;;;;;;;;;5052148;28;20464;-65
2023/09/10 03:27:09;;;;;;;20.90;11.55;;;;;;;;;;5052318;28;20028;-67
2023/09/10 03:29:36;;;;;;;14.75;10.68;;;;;;;;;;5052072;28;20032;-67
2023/09/10 03:32:03;;;;;;;15.52;11.35;;;;;;;;;;5052080;28;20091;-67
2023/09/10 03:34:31;;;;;;;20.63;11.27;;;;;;;;;;5052124;28;20070;-66
2023/09/10 03:36:57;;;;;;;15.07;10.57;;;;;;;;;;5052584;28;20040;-67
2023/09/10 03:39:22;;;;;;;13.73;11.25;;;;;;;;;;5055991;28;20033;-67
2023/09/10 03:41:48;;;;;;;16.83;12.20;;;;;;;;;;5056024;28;20369;-67
2023/09/10 03:44:13;;;;;;;16.23;11.30;;;;;;;;;;5055710;28;20458;-68
2023/09/10 03:46:38;;;;;;;14.85;10.85;;;;;;;;;;5055872;28;20029;-67
2023/09/10 03:49:04;;;;;;;16.90;11.38;;;;;;;;;;5055602;28;20021;-62
2023/09/10 03:51:30;;;;;;;16.55;11.18;;;;;;;;;;5055392;28;20047;-62
2023/09/10 03:53:56;;;;;;;18.65;11.23;;;;;;;;;;5055663;28;20033;-61
2023/09/10 03:56:23;;;;;;;15.95;11.52;;;;;;;;;;5055735;28;20063;-62
2023/09/10 03:58:48;;;;;;;14.98;10.57;;;;;;;;;;5054025;28;20033;-62
2023/09/10 04:01:14;;;;;;;14.23;10.88;;;;;;;;;;5055577;28;20308;-62
2023/09/10 04:03:39;;;;;;;15.38;10.73;;;;;;;;;;5055589;28;20052;-62
2023/09/10 04:06:05;;;;;;;15.18;11.07;;;;;;;;;;5055568;28;20397;-62
2023/09/10 04:08:30;;;;;;;16.50;11.18;;;;;;;;;;5055435;28;20098;-62
2023/09/10 04:10:55;;;;;;;16.80;11.32;;;;;;;;;;5055356;28;20391;-62
2023/09/10 04:13:21;;;;;;;17.40;12.02;;;;;;;;;;5055199;28;20033;-62
2023/09/10 04:15:46;;;;;;;15.15;11.00;;;;;;;;;;5054811;28;20081;-67
2023/09/10 04:18:12;;;;;;;15.20;11.38;;;;;;;;;;5054580;28;20039;-67
2023/09/10 04:20:37;;;;;;;18.25;11.63;;;;;;;;;;5053206;28;20017;-67
2023/09/10 04:23:03;;;;;;;16.67;11.35;;;;;;;;;;5052991;28;20094;-67
2023/09/10 04:25:28;;;;;;;15.35;11.25;;;;;;;;;;5053053;28;20532;-66
2023/09/10 04:27:54;;;;;;;19.05;11.27;;;;;;;;;;5052835;28;20041;-66
2023/09/10 04:30:19;;;;;;;17.58;11.00;;;;;;;;;;5053736;28;20063;-67
2023/09/10 04:32:44;;;;;;;16.00;11.50;;;;;;;;;;5054098;28;20021;-66
2023/09/10 04:35:10;;;;;;;18.45;11.50;;;;;;;;;;5054700;28;20048;-62
2023/09/10 04:37:36;;;;;;;18.92;12.32;;;;;;;;;;5054659;28;20059;-67
2023/09/10 04:40:06;;;;;;;18.88;12.15;;;;;;;;;;5054649;28;20033;-65
2023/09/10 04:42:32;;;;;;;22.27;12.35;;;;;;;;;;5054651;28;20021;-67
2023/09/10 04:44:58;;;;;;;16.52;11.00;;;;;;;;;;5054730;28;20033;-65
2023/09/10 04:47:23;;;;;;;18.77;11.45;;;;;;;;;;5054449;28;20521;-66
2023/09/10 04:49:48;;;;;;;17.10;10.88;;;;;;;;;;5054361;28;20024;-64
2023/09/10 04:52:15;;;;;;;17.23;11.27;;;;;;;;;;5054602;28;20070;-67
2023/09/10 04:54:41;;;;;;;15.77;11.43;;;;;;;;;;5054479;28;20474;-66
2023/09/10 04:57:07;;;;;;;19.85;11.35;;;;;;;;;;5054483;28;20032;-63
2023/09/10 04:59:33;;;;;;;18.08;11.48;;;;;;;;;;5054445;28;20056;-67
2023/09/10 05:01:58;;;;;;;14.60;11.07;;;;;;;;;;5054264;28;20517;-64
2023/09/10 05:04:24;;;;;;;14.25;10.55;;;;;;;;;;5054374;28;20110;-62
2023/09/10 05:06:49;;;;;;;13.48;10.32;;;;;;;;;;5054433;28;20017;-62
2023/09/10 05:09:15;;;;;;;15.90;11.10;;;;;;;;;;5054370;28;20032;-63
2023/09/10 05:11:40;;;;;;;16.48;10.43;;;;;;;;;;5053882;28;20536;-62
2023/09/10 05:14:06;;;;;;;14.85;11.18;;;;;;;;;;5054181;28;20425;-62
2023/09/10 05:16:31;;;;;;;13.27;11.05;;;;;;;;;;5054248;28;20098;-62
2023/09/10 05:18:56;;;;;;;17.65;11.32;;;;;;;;;;5054020;28;20032;-62
2023/09/10 05:21:22;;;;;;;16.40;10.75;;;;;;;;;;5053947;28;20029;-63
2023/09/10 05:23:47;;;;;;;15.60;11.10;;;;;;;;;;5053868;28;20017;-62
2023/09/10 05:26:13;;;;;;;16.13;11.07;;;;;;;;;;5053696;28;20394;-66
2023/09/10 05:28:39;;;;;;;13.48;11.20;;;;;;;;;;5053899;28;20040;-62
2023/09/10 05:31:05;;;;;;;21.77;12.85;;;;;;;;;;5053795;28;20060;-61
2023/09/10 05:33:32;;;;;;;16.00;10.98;;;;;;;;;;5053858;28;20056;-61
2023/09/10 05:35:58;;;;;;;16.33;11.23;;;;;;;;;;5053387;28;20032;-62
2023/09/10 05:38:24;;;;;;;13.88;10.90;;;;;;;;;;5053610;28;20029;-62
2023/09/10 05:40:50;;;;;;;16.45;10.70;;;;;;;;;;5053425;28;20025;-63
2023/09/10 05:43:16;;;;;;;18.13;10.95;;;;;;;;;;5053526;28;20492;-62
2023/09/10 05:45:41;;;;;;;14.18;11.82;;;;;;;;;;5053726;28;20053;-62
2023/09/10 05:48:07;;;;;;;15.55;10.93;;;;;;;;;;5052015;28;20382;-61
2023/09/10 05:50:32;;;;;;;18.35;12.32;;;;;;;;;;5053182;28;20044;-64
2023/09/10 05:52:59;;;;;;;15.70;11.52;;;;;;;;;;5053403;28;20485;-62
2023/09/10 05:55:25;;;;;;;13.90;11.63;;;;;;;;;;5053227;28;20021;-63
2023/09/10 05:57:55;;;;;;;16.40;11.57;;;;;;;;;;5053283;28;20417;-63
2023/09/10 06:00:21;;;;;;;17.63;11.25;;;;;;;;;;5052831;28;20485;-63
2023/09/10 06:02:48;;;;;;;17.67;11.27;;;;;;;;;;5053274;28;20028;-64
2023/09/10 06:05:14;;;;;;;14.18;11.60;;;;;;;;;;5053108;28;20033;-61
2023/09/10 06:07:40;;;;;;;13.35;11.15;;;;;;;;;;5053105;28;20028;-62
2023/09/10 06:10:08;;;;;;;14.75;11.13;;;;;;;;;;5052737;28;20106;-62
2023/09/10 06:12:36;;;;;;;20.48;10.77;;;;;;;;;;5053071;28;20067;-62
2023/09/10 06:15:03;;;;;;;17.35;11.20;;;;;;;;;;5053092;28;20052;-63
2023/09/10 06:17:28;;;;;;;14.98;11.40;;;;;;;;;;5052782;28;20470;-62
2023/09/10 06:19:54;;;;;;;13.68;11.05;;;;;;;;;;5052989;28;20051;-62
2023/09/10 06:22:19;;;;;;;15.48;11.23;;;;;;;;;;5051787;28;20025;-62
2023/09/10 06:24:44;;;;;;;17.35;10.52;;;;;;;;;;5052562;28;20025;-62
2023/09/10 06:27:10;;;;;;;13.20;10.13;;;;;;;;;;5052839;28;20029;-62
2023/09/10 06:29:36;;;;;;;14.02;10.25;;;;;;;;;;5052907;28;20025;-62
2023/09/10 06:32:01;;;;;;;13.15;9.23;;;;;;;;;;5052815;28;20071;-64
2023/09/10 06:34:27;;;;;;;14.20;9.50;;;;;;;;;;5052654;28;20442;-63
2023/09/10 06:36:52;;;;;;;18.55;11.13;;;;;;;;;;5052445;28;20029;-62
2023/09/10 06:39:18;;;;;;;14.15;8.80;;;;;;;;;;5052319;28;20025;-62
2023/09/10 06:41:43;;;;;;;14.75;8.93;;;;;;;;;;5052680;28;20028;-62
2023/09/10 06:44:09;;;;;;;13.57;8.95;;;;;;;;;;5052666;28;20028;-63
2023/09/10 06:46:34;;;;;;;13.38;8.25;;;;;;;;;;5052504;28;20025;-66
2023/09/10 06:48:59;;;;;;;11.30;8.10;;;;;;;;;;5052469;28;20029;-62
2023/09/10 06:51:27;;;;;;;10.93;8.40;;;;;;;;;;5052418;28;20048;-62
2023/09/10 06:53:53;;;;;;;11.40;8.30;;;;;;;;;;5052312;28;20097;-63
2023/09/10 06:56:18;;;;;;;11.40;8.63;;;;;;;;;;5052415;28;20108;-65
2023/09/10 06:58:43;;;;;;;9.70;7.57;;;;;;;;;;5052381;28;20075;-63
2023/09/10 07:01:09;;;;;;;11.20;8.07;;;;;;;;;;5052632;28;20021;-62
2023/09/10 07:03:34;;;;;;;14.27;7.90;;;;;;;;;;5052234;28;20021;-64
2023/09/10 07:06:09;;;;;;;12.80;7.90;;;;;;;;;;5068184;28;20025;-64
2023/09/10 07:08:35;;;;;;;11.98;8.00;;;;;;;;;;5071137;28;20029;-63
2023/09/10 07:11:01;;;;;;;11.88;7.80;;;;;;;;;;5072372;28;20035;-65
2023/09/10 07:13:27;;;;;;;10.13;7.80;;;;;;;;;;5075667;28;20021;-63
2023/09/10 07:15:52;;;;;;;8.77;7.40;;;;;;;;;;5073716;28;20029;-63
2023/09/10 07:18:18;;;;;;;11.82;7.80;;;;;;;;;;5056994;28;20079;-62
2023/09/10 07:20:43;;;;;;;10.05;7.50;;;;;;;;;;5065080;28;20027;-62
2023/09/10 07:23:09;;;;;;;9.65;7.38;;;;;;;;;;5070786;28;20024;-67
2023/09/10 07:25:34;;;;;;;10.43;7.65;;;;;;;;;;5064688;28;20067;-65
2023/09/10 07:28:00;;;;;;;9.82;7.05;;;;;;;;;;5063792;28;20021;-66
2023/09/10 07:30:25;;;;;;;8.10;6.88;;;;;;;;;;5071325;28;20427;-66
2023/09/10 07:32:50;;;;;;;9.10;7.05;;;;;;;;;;5059166;28;20474;-66
2023/09/10 07:35:16;;;;;;;9.07;7.35;;;;;;;;;;5068588;28;20020;-66
2023/09/10 07:37:42;;;;;;;8.85;7.18;;;;;;;;;;5065150;28;20058;-65
2023/09/10 07:40:09;;;;;;;8.25;7.10;;;;;;;;;;5062341;28;20091;-66
2023/09/10 07:42:35;;;;;;;12.18;8.02;;;;;;;;;;5071950;28;20020;-65
2023/09/10 07:45:00;;;;;;;9.90;7.07;;;;;;;;;;5059417;28;20021;-66
2023/09/10 07:47:26;;;;;;;11.75;8.00;;;;;;;;;;5067899;28;20056;-67
2023/09/10 07:49:51;;;;;;;8.95;6.85;;;;;;;;;;5066220;28;20029;-66
2023/09/10 07:52:17;;;;;;;9.88;7.53;;;;;;;;;;5060894;28;20037;-67
2023/09/10 07:54:42;;;;;;;8.82;7.40;;;;;;;;;;5071712;28;20025;-65
2023/09/10 07:57:08;;;;;;;8.23;7.07;;;;;;;;;;5059690;28;20013;-65
2023/09/10 07:59:33;;;;;;;12.07;6.97;;;;;;;;;;5054196;28;20466;-67
2023/09/10 08:02:01;;;;;;;9.75;7.40;;;;;;;;;;5054451;28;20032;-66
2023/09/10 08:04:27;;;;;;;8.88;6.70;;;;;;;;;;5055209;28;20037;-62
2023/09/10 08:06:53;;;;;;;9.15;6.70;;;;;;;;;;5055157;28;20033;-62
2023/09/10 08:09:19;;;;;;;8.90;6.90;;;;;;;;;;5053019;28;20033;-66
2023/09/10 08:11:44;;;;;;;8.65;6.57;;;;;;;;;;5055316;28;20431;-66
2023/09/10 08:14:10;;;;;;;12.13;7.05;;;;;;;;;;5054770;28;20020;-62
2023/09/10 08:16:36;;;;;;;9.93;7.50;;;;;;;;;;5053072;28;20078;-62
2023/09/10 08:19:02;;;;;;;8.82;7.50;;;;;;;;;;5053291;28;20493;-62
2023/09/10 08:21:27;;;;;;;11.73;7.93;;;;;;;;;;5053178;28;20028;-61
2023/09/10 08:23:53;;;;;;;10.93;7.28;;;;;;;;;;5051372;28;20028;-66
2023/09/10 08:26:18;;;;;;;8.18;7.32;;;;;;;;;;5053148;28;20035;-63
2023/09/10 08:28:44;;;;;;;10.68;7.35;;;;;;;;;;5053059;28;20363;-63
2023/09/10 08:31:09;;;;;;;9.07;6.82;;;;;;;;;;5054659;28;20029;-62
2023/09/10 08:33:35;;;;;;;12.68;6.65;;;;;;;;;;5054777;28;20029;-62
2023/09/10 08:36:00;;;;;;;12.57;6.85;;;;;;;;;;5053989;28;20524;-63
2023/09/10 08:38:26;;;;;;;7.72;6.80;;;;;;;;;;5053411;28;20025;-63
2023/09/10 08:40:57;;;;;;;8.27;7.07;;;;;;;;;;5053555;28;20025;-61
2023/09/10 08:43:34;;;;;;;12.65;6.78;;;;;;;;;;5054733;28;20029;-62
2023/09/10 08:46:00;;;;;;;7.78;6.50;;;;;;;;;;5054663;28;20029;-63
2023/09/10 08:48:27;;;;;;;9.02;6.78;;;;;;;;;;5054511;28;20025;-62
2023/09/10 08:50:53;;;;;;;8.75;6.00;;;;;;;;;;5054356;28;20057;-62
2023/09/10 08:53:20;;;;;;;7.88;6.55;;;;;;;;;;5054519;28;20029;-62
2023/09/10 08:55:47;;;;;;;11.38;6.60;;;;;;;;;;5053421;28;20021;-62
2023/09/10 08:58:13;;;;;;;9.13;6.70;;;;;;;;;;5054539;28;20378;-62
2023/09/10 09:00:39;;;;;;;10.38;6.35;;;;;;;;;;5054614;28;20036;-62
2023/09/10 09:03:04;;;;;;;7.80;6.22;;;;;;;;;;5054268;28;20029;-62
2023/09/10 09:05:31;;;;;;;9.50;5.78;;;;;;;;;;5054205;28;20104;-63
2023/09/10 09:08:05;;;;;;;8.68;6.32;;;;;;;;;;5054442;28;20021;-62
2023/09/10 09:10:31;;;;;;;10.18;6.18;;;;;;;;;;5054228;28;20025;-63
2023/09/10 09:13:05;;;;;;;9.25;6.38;;;;;;;;;;5054116;28;20196;-62
2023/09/10 09:15:32;;;;;;;7.85;5.85;;;;;;;;;;5054175;28;20035;-62
2023/09/10 09:17:58;;;;;;;8.25;6.20;;;;;;;;;;5053932;28;20431;-62
2023/09/10 09:20:24;;;;;;;6.72;5.70;;;;;;;;;;5053722;28;20032;-62
2023/09/10 09:22:56;;;;;;;9.30;5.72;;;;;;;;;;5053924;28;20025;-63
2023/09/10 09:25:22;;;;;;;6.53;5.82;;;;;;;;;;5053970;28;20386;-62
2023/09/10 09:27:48;;;;;;;10.35;6.03;;;;;;;;;;5053914;28;20029;-62
2023/09/10 09:30:14;;;;;;;7.10;5.72;;;;;;;;;;5053515;28;20032;-62
2023/09/10 09:32:40;;;;;;;9.23;5.88;;;;;;;;;;5053809;28;20029;-63
2023/09/10 09:35:09;;;;;;;8.60;6.05;;;;;;;;;;5052887;28;20024;-62
2023/09/10 09:37:35;;;;;;;11.13;5.80;;;;;;;;;;5053422;28;20502;-64
2023/09/10 09:40:02;;;;;;;6.38;5.78;;;;;;;;;;5053688;28;20319;-62
2023/09/10 09:42:28;;;;;;;7.90;5.43;;;;;;;;;;5053588;28;20047;-62
2023/09/10 09:44:54;;;;;;;6.68;5.57;;;;;;;;;;5053507;28;20104;-62
2023/09/10 09:47:20;;;;;;;11.43;5.85;;;;;;;;;;5053011;28;20492;-63
2023/09/10 09:49:47;;;;;;;9.02;5.30;;;;;;;;;;5053160;28;20044;-62
2023/09/10 09:52:13;;;;;;;6.38;5.15;;;;;;;;;;5053215;28;20044;-62
2023/09/10 09:54:39;;;;;;;6.95;5.38;;;;;;;;;;5053393;28;20021;-63
2023/09/10 09:57:05;;;;;;;9.65;5.10;;;;;;;;;;5053513;28;20380;-61
2023/09/10 09:59:35;;;;;;;8.10;5.40;;;;;;;;;;5053251;28;20106;-62
2023/09/10 10:02:02;;;;;;;7.75;5.40;;;;;;;;;;5051738;28;20032;-62
2023/09/10 10:04:28;;;;;;;9.65;6.50;;;;;;;;;;5053422;28;20035;-61
2023/09/10 10:06:55;;;;;;;7.70;5.72;;;;;;;;;;5053271;28;20057;-63
2023/09/10 10:09:21;;;;;;;7.72;5.60;;;;;;;;;;5053279;28;20074;-62
2023/09/10 10:11:47;;;;;;;8.48;5.57;;;;;;;;;;5052939;28;20028;-62
2023/09/10 10:14:14;;;;;;;6.40;4.90;;;;;;;;;;5053063;28;20397;-62
2023/09/10 10:16:40;;;;;;;16.13;14.50;;;;;;;;;;5052734;28;20382;-62
2023/09/10 10:19:05;;;;;;;6.72;5.32;;;;;;;;;;5053083;28;20017;-61
2023/09/10 10:21:32;;;;;;;7.10;5.15;;;;;;;;;;5051534;28;20051;-61
2023/09/10 10:23:57;;;;;;;8.75;5.40;;;;;;;;;;5052861;28;20534;-63
2023/09/10 10:26:24;;;;;;;6.53;5.32;;;;;;;;;;5053095;28;20128;-63
2023/09/10 10:28:50;;;;;;;8.07;5.05;;;;;;;;;;5052799;28;20455;-62
2023/09/10 10:31:17;;;;;;;7.75;5.10;;;;;;;;;;5052750;28;20039;-61
2023/09/10 10:34:00;;;;;;;7.43;4.72;;;;;;;;;;5052928;28;20902;-63
2023/09/10 10:36:32;;;;;;;6.15;4.45;;;;;;;;;;5042877;28;20036;-61
2023/09/10 10:39:00;;;;;;;7.93;4.25;;;;;;;;;;5052887;28;20032;-62
2023/09/10 10:41:29;;;;;;;7.32;4.30;;;;;;;;;;5052420;28;20078;-62
2023/09/10 10:44:21;;;;;;;7.38;4.50;;;;;;;;;;5052525;28;20017;-63
2023/09/10 10:46:53;;;;;;;5.53;4.53;;;;;;;;;;5052665;28;20028;-63
2023/09/10 10:49:20;;;;;;;5.78;4.30;;;;;;;;;;5051478;28;20025;-61
2023/09/10 10:51:49;;;;;;;8.35;4.47;;;;;;;;;;5052423;28;20092;-62
2023/09/10 10:54:15;;;;;;;8.13;3.88;;;;;;;;;;5052546;28;20025;-62
2023/09/10 10:56:41;;;;;;;7.20;4.15;;;;;;;;;;5052654;28;20040;-62
2023/09/10 10:59:07;;;;;;;12.07;4.40;;;;;;;;;;5052278;28;20021;-62
2023/09/10 11:01:32;;;;;;;6.45;3.75;;;;;;;;;;5052308;28;20414;-63
2023/09/10 11:03:58;;;;;;;5.25;3.75;;;;;;;;;;5052565;28;20041;-62
2023/09/10 11:06:23;;;;;;;7.15;3.90;;;;;;;;;;5052446;28;20499;-62
2023/09/10 11:08:48;;;;;;;8.10;4.15;;;;;;;;;;5052625;28;20025;-63
2023/09/10 11:11:38;;;;;;;7.78;4.32;;;;;;;;;;5052689;28;20025;-66
2023/09/10 11:14:06;;;;;;;6.78;4.25;;;;;;;;;;5052273;28;20394;-67
2023/09/10 11:16:32;;;;;;;6.82;4.30;;;;;;;;;;5052595;28;20086;-62
2023/09/10 11:18:59;;;;;;;5.45;4.28;;;;;;;;;;5052471;28;20021;-65
2023/09/10 11:21:56;;;;;;;9.27;4.25;;;;;;;;;;5052132;28;20032;-62
2023/09/10 11:24:21;;;;;;;7.03;4.22;;;;;;;;;;5051997;28;20466;-61
2023/09/10 11:26:47;;;;;;;9.13;4.63;;;;;;;;;;5052286;28;20040;-61
2023/09/10 11:29:19;;;;;;;5.63;4.10;;;;;;;;;;5051904;28;20032;-61
2023/09/10 11:31:51;;;;;;;7.63;4.40;;;;;;;;;;5052309;28;20374;-61
2023/09/10 11:34:17;;;;;;;8.40;4.47;;;;;;;;;;5052142;28;20063;-63
2023/09/10 11:36:50;;;;;;;5.60;4.07;;;;;;;;;;5051944;28;20040;-66
2023/09/10 11:39:19;;;;;;;6.35;3.80;;;;;;;;;;5052285;28;20025;-66
2023/09/10 11:41:52;;;;;;;8.27;4.00;;;;;;;;;;5051942;28;20033;-64
2023/09/10 11:44:17;;;;;;;5.43;3.90;;;;;;;;;;5052190;28;20037;-67
2023/09/10 11:46:43;;;;;;;5.82;4.10;;;;;;;;;;5051953;28;20120;-67
2023/09/10 11:49:09;;;;;;;6.40;4.20;;;;;;;;;;5052300;28;20052;-66
2023/09/10 11:51:48;;;;;;;6.43;4.13;;;;;;;;;;5051887;28;20041;-67
2023/09/10 11:54:19;;;;;;;9.25;4.03;;;;;;;;;;5052066;28;20091;-67
2023/09/10 11:57:03;;;;;;;7.78;4.20;;;;;;;;;;5051874;28;20033;-66
2023/09/10 11:59:32;;;;;;;6.93;4.28;;;;;;;;;;5055064;28;20078;-67
2023/09/10 12:01:58;;;;;;;6.38;4.28;;;;;;;;;;5055753;28;20051;-67
2023/09/10 12:04:31;;;;;;;6.30;4.30;;;;;;;;;;5055736;28;20033;-65
2023/09/10 12:06:57;;;;;;;8.13;4.32;;;;;;;;;;5055669;28;20071;-66
2023/09/10 12:09:22;;;;;;;5.80;4.30;;;;;;;;;;5055599;28;20478;-66
2023/09/10 12:11:51;;;;;;;11.13;4.78;;;;;;;;;;5055250;28;20490;-64
2023/09/10 12:14:17;;;;;;;8.27;4.38;;;;;;;;;;5055427;28;20083;-66
2023/09/10 12:16:42;;;;;;;6.03;4.43;;;;;;;;;;5055096;28;20437;-66
2023/09/10 12:19:08;;;;;;;5.50;4.35;;;;;;;;;;5055430;28;20037;-67
2023/09/10 12:21:34;;;;;;;7.85;4.57;;;;;;;;;;5054996;28;20020;-65
2023/09/10 12:23:59;;;;;;;6.88;4.30;;;;;;;;;;5055156;28;20029;-66
2023/09/10 12:26:25;;;;;;;5.75;4.50;;;;;;;;;;5055017;28;20068;-66
2023/09/10 12:28:51;;;;;;;5.85;4.30;;;;;;;;;;5055222;28;20028;-64
2023/09/10 12:31:17;;;;;;;6.60;4.38;;;;;;;;;;5055231;28;20097;-66
2023/09/10 12:33:42;;;;;;;5.38;4.20;;;;;;;;;;5055116;28;20032;-64
2023/09/10 12:36:07;;;;;;;7.15;4.60;;;;;;;;;;5054539;28;20116;-65
2023/09/10 12:38:33;;;;;;;8.32;4.70;;;;;;;;;;5054916;28;20024;-65
2023/09/10 12:40:59;;;;;;;6.63;4.50;;;;;;;;;;5054513;28;20029;-66
2023/09/10 12:43:25;;;;;;;7.03;4.18;;;;;;;;;;5054899;28;20052;-63
2023/09/10 12:45:51;;;;;;;9.35;4.93;;;;;;;;;;5055043;28;20419;-63
2023/09/10 12:48:20;;;;;;;6.55;4.10;;;;;;;;;;5054662;28;20028;-66
2023/09/10 12:50:47;;;;;;;5.80;3.95;;;;;;;;;;5054666;28;20040;-63
2023/09/10 12:53:13;;;;;;;5.25;4.50;;;;;;;;;;5054789;28;20025;-65
2023/09/10 12:55:40;;;;;;;6.55;4.53;;;;;;;;;;5054471;28;20032;-66
2023/09/10 12:58:11;;;;;;;8.45;4.35;;;;;;;;;;5054699;28;20382;-63
2023/09/10 13:00:37;;;;;;;7.45;4.60;;;;;;;;;;5054359;28;20032;-67
2023/09/10 13:03:03;;;;;;;7.18;4.50;;;;;;;;;;5053131;28;20032;-63
2023/09/10 13:05:28;;;;;;;5.97;4.32;;;;;;;;;;5054513;28;20032;-63
2023/09/10 13:07:54;;;;;;;7.30;4.43;;;;;;;;;;5054491;28;20021;-64
2023/09/10 13:10:19;;;;;;;8.25;4.85;;;;;;;;;;5054375;28;20032;-63
2023/09/10 13:12:45;;;;;;;6.40;4.40;;;;;;;;;;5054283;28;20024;-65
2023/09/10 13:15:11;;;;;;;6.78;4.00;;;;;;;;;;5054461;28;20025;-64
2023/09/10 13:17:37;;;;;;;6.43;4.30;;;;;;;;;;5054144;28;20381;-63
2023/09/10 13:20:03;;;;;;;7.10;4.43;;;;;;;;;;5053991;28;20096;-62
2023/09/10 13:22:28;;;;;;;5.85;4.43;;;;;;;;;;5053813;28;20492;-65
2023/09/10 13:24:58;;;;;;;6.85;4.30;;;;;;;;;;5053886;28;20057;-63
2023/09/10 13:27:24;;;;;;;;;;;;;;;;;;5054542;28;20032;-66
2023/09/10 13:29:49;;;;;;;9.05;4.55;;;;;;;;;;5054065;28;20286;-66
2023/09/10 13:32:14;;;;;;;7.18;4.45;;;;;;;;;;5054109;28;20097;-64
2023/09/10 13:34:41;;;;;;;11.02;5.13;;;;;;;;;;5053868;28;20019;-63
2023/09/10 13:37:07;;;;;;;8.80;4.55;;;;;;;;;;5053545;28;20043;-63
2023/09/10 13:39:34;;;;;;;7.95;4.00;;;;;;;;;;5053732;28;20028;-64
2023/09/10 13:42:00;;;;;;;7.65;4.40;;;;;;;;;;5053715;28;20029;-66
2023/09/10 13:44:25;;;;;;;7.65;4.32;;;;;;;;;;5053753;28;20108;-68
2023/09/10 13:46:50;;;;;;;9.55;4.43;;;;;;;;;;5053682;28;20466;-65
2023/09/10 13:49:16;;;;;;;6.85;4.35;;;;;;;;;;5053727;28;20024;-63
2023/09/10 13:51:42;;;;;;;5.95;4.43;;;;;;;;;;5053480;28;20048;-64
2023/09/10 13:54:08;;;;;;;6.38;4.22;;;;;;;;;;5053198;28;20104;-67
2023/09/10 13:56:34;;;;;;;7.15;4.70;;;;;;;;;;5053647;28;20119;-67
2023/09/10 13:59:00;;;;;;;6.70;4.55;;;;;;;;;;5053729;28;20108;-66
2023/09/10 14:01:30;;;;;;;6.18;4.43;;;;;;;;;;5053231;28;20028;-64
2023/09/10 14:03:55;;;;;;;;;;;;;;;;;;5053760;28;20040;-63
2023/09/10 14:06:21;;;;;;;5.47;4.57;;;;;;;;;;5053354;28;19910;-65
2023/09/10 14:08:47;;;;;;;7.22;3.97;;;;;;;;;;5053058;28;20035;-68
2023/09/10 14:11:12;;;;;;;8.95;4.85;;;;;;;;;;5053227;28;20393;-62
2023/09/10 14:13:37;;;;;;;8.18;4.97;;;;;;;;;;5053468;28;20028;-62
2023/09/10 14:16:03;;;;;;;9.30;5.47;;;;;;;;;;5053096;28;20059;-64
2023/09/10 14:18:28;;;;;;;6.88;5.03;;;;;;;;;;5052984;28;20029;-64
2023/09/10 14:20:54;;;;;;;8.52;5.05;;;;;;;;;;5052406;28;20043;-62
2023/09/10 14:23:19;;;;;;;7.38;4.95;;;;;;;;;;5052749;28;20382;-65
2023/09/10 14:25:47;;;;;;;9.35;5.13;;;;;;;;;;5053040;28;20045;-65
2023/09/10 14:28:14;;;;;;;8.50;5.13;;;;;;;;;;5052800;28;20029;-63
2023/09/10 14:30:39;;;;;;;8.95;5.18;;;;;;;;;;5052797;28;20032;-66